Queen Creek, AZ

9:35 AM MST on December 19, 2014 (GMT -0700)
MesoWest Rittenhouse AZ US | Change Station
CLOSE
Current Station
Personal Weather Station
Location: Queen Creek, AZ
Elevation: 1398 ft
Nearby Weather Stations

Elev 1398 ft 33.25 °N, 111.64 °W | Updated 55 minutes ago

Clear
Clear
45 °F
Feels Like 42 °F
N
5
Wind Variable Wind from SE
Gusts 8.0 mph

Today
High -- | Low -- °F
--% Chance of Precip.
Yesterday
High -- | Low -- °F
Precip. -- in
7:25 AM 5:22 PM
Waning Crescent, 7% visible
Pressure 30.25 in
Visibility 35.0 miles
Clouds Few 25000 ft
Windchill 42 °F
Dew Point 40 °F
Humidity 83%
Rainfall -999.00 in
Snow Depth Not available.
UV 1 out of 12
Pollen Not available.
Air Quality Not available.
Flu Activity Not available.
METAR KIWA 191547Z 11004KT 35SM FEW250 06/04 A3025

More Conditions Fewer Conditions

Pressure 30.25 in
Visibility 35.0 miles
Clouds Few 25000 ft
Windchill 42 °F
Dew Point 40 °F
Humidity 83%
Rainfall -999.00 in
Snow Depth Not available.
UV 1 out of 12
Pollen Not available.
Air Quality Not available.
Flu Activity Not available.
METAR KIWA 191547Z 11004KT 35SM FEW250 06/04 A3025

More Conditions Fewer Conditions

10-Day Weather Forecast

Almanac

Astronomy

Dec. 19, 2014 Rise Set
Actual Time
Civil Twilight
Nautical Twilight
Astronomical Twilight
Moon
Length of Visible Light
Length of Day
Tomorrow will be .
, % of the Moon is Illuminated

Today's Extremes

State Highs State Lows

Community

WunderPhotos

Upload Photos

1,779,005 photos uploaded!

WunderBlogs® & News

Nearby

Air Quality

  Air Quality AQ Index Pollutant
Not available.

Snow Depth

Station Depth Elevation

Earthquake Activity

City Distance Mag. Time & Date
Minimum magnitude displayed is 2.5.

Coastal Water Temperatures

Place Temperature

Nearby Weather Stations